sensor_id;sensor_type;location;lat;lon;timestamp;temperature;humidity
17252;DHT22;8742;51.716;8.790;2022-11-06T00:00:34;8.70;99.90
17252;DHT22;8742;51.716;8.790;2022-11-06T00:03:01;8.70;99.90
17252;DHT22;8742;51.716;8.790;2022-11-06T00:05:28;8.70;99.90
17252;DHT22;8742;51.716;8.790;2022-11-06T00:08:13;8.70;99.90
17252;DHT22;8742;51.716;8.790;2022-11-06T00:10:40;8.70;99.90
17252;DHT22;8742;51.716;8.790;2022-11-06T00:13:08;8.70;99.90
17252;DHT22;8742;51.716;8.790;2022-11-06T00:15:35;8.70;99.90
17252;DHT22;8742;51.716;8.790;2022-11-06T00:18:01;8.70;99.90
17252;DHT22;8742;51.716;8.790;2022-11-06T00:20:28;8.70;99.90
17252;DHT22;8742;51.716;8.790;2022-11-06T00:22:55;8.60;99.90
17252;DHT22;8742;51.716;8.790;2022-11-06T00:25:22;8.60;99.90
17252;DHT22;8742;51.716;8.790;2022-11-06T00:27:49;8.60;99.90
17252;DHT22;8742;51.716;8.790;2022-11-06T00:30:17;8.50;99.90
17252;DHT22;8742;51.716;8.790;2022-11-06T00:32:45;8.50;99.90
17252;DHT22;8742;51.716;8.790;2022-11-06T00:35:12;8.50;99.90
17252;DHT22;8742;51.716;8.790;2022-11-06T00:37:39;8.50;99.90
17252;DHT22;8742;51.716;8.790;2022-11-06T00:40:07;8.40;99.90
17252;DHT22;8742;51.716;8.790;2022-11-06T00:42:34;8.30;99.90
17252;DHT22;8742;51.716;8.790;2022-11-06T00:45:01;8.30;99.90
17252;DHT22;8742;51.716;8.790;2022-11-06T00:47:29;8.20;99.90
17252;DHT22;8742;51.716;8.790;2022-11-06T00:49:56;8.10;99.90
17252;DHT22;8742;51.716;8.790;2022-11-06T00:52:23;8.00;99.90
17252;DHT22;8742;51.716;8.790;2022-11-06T00:54:50;7.90;99.90
17252;DHT22;8742;51.716;8.790;2022-11-06T00:57:17;7.90;99.90
17252;DHT22;8742;51.716;8.790;2022-11-06T00:59:44;7.80;99.90
17252;DHT22;8742;51.716;8.790;2022-11-06T01:02:10;7.70;99.90
17252;DHT22;8742;51.716;8.790;2022-11-06T01:04:39;7.70;99.90
17252;DHT22;8742;51.716;8.790;2022-11-06T01:07:06;7.70;99.90
17252;DHT22;8742;51.716;8.790;2022-11-06T01:09:32;7.60;99.90
17252;DHT22;8742;51.716;8.790;2022-11-06T01:11:59;7.60;99.90
17252;DHT22;8742;51.716;8.790;2022-11-06T01:14:26;7.60;99.90
17252;DHT22;8742;51.716;8.790;2022-11-06T01:16:53;7.50;99.90
17252;DHT22;8742;51.716;8.790;2022-11-06T01:19:21;7.50;99.90
17252;DHT22;8742;51.716;8.790;2022-11-06T01:21:51;7.50;99.90
17252;DHT22;8742;51.716;8.790;2022-11-06T01:24:21;7.50;99.90
17252;DHT22;8742;51.716;8.790;2022-11-06T01:26:49;7.50;99.90
17252;DHT22;8742;51.716;8.790;2022-11-06T01:29:17;7.60;99.90
17252;DHT22;8742;51.716;8.790;2022-11-06T01:31:44;7.60;99.90
17252;DHT22;8742;51.716;8.790;2022-11-06T01:34:14;7.50;99.90
17252;DHT22;8742;51.716;8.790;2022-11-06T01:36:42;7.50;99.90
17252;DHT22;8742;51.716;8.790;2022-11-06T01:39:13;7.50;99.90
17252;DHT22;8742;51.716;8.790;2022-11-06T01:41:43;7.50;99.90
17252;DHT22;8742;51.716;8.790;2022-11-06T01:47:20;7.30;99.90
17252;DHT22;8742;51.716;8.790;2022-11-06T01:49:47;7.30;99.90
17252;DHT22;8742;51.716;8.790;2022-11-06T01:52:15;7.30;99.90
17252;DHT22;8742;51.716;8.790;2022-11-06T01:54:47;7.30;99.90
17252;DHT22;8742;51.716;8.790;2022-11-06T01:57:16;7.30;99.90
17252;DHT22;8742;51.716;8.790;2022-11-06T01:59:44;7.30;99.90
17252;DHT22;8742;51.716;8.790;2022-11-06T02:02:12;7.30;99.90
17252;DHT22;8742;51.716;8.790;2022-11-06T02:04:41;7.20;99.90
17252;DHT22;8742;51.716;8.790;2022-11-06T02:07:09;7.20;99.90
17252;DHT22;8742;51.716;8.790;2022-11-06T02:09:37;7.10;99.90
17252;DHT22;8742;51.716;8.790;2022-11-06T02:12:13;7.00;99.90
17252;DHT22;8742;51.716;8.790;2022-11-06T02:14:49;7.00;99.90
17252;DHT22;8742;51.716;8.790;2022-11-06T02:17:22;7.00;99.90
17252;DHT22;8742;51.716;8.790;2022-11-06T02:19:59;7.00;99.90
17252;DHT22;8742;51.716;8.790;2022-11-06T02:22:38;7.10;99.90
17252;DHT22;8742;51.716;8.790;2022-11-06T02:25:14;7.20;99.90
17252;DHT22;8742;51.716;8.790;2022-11-06T02:27:45;7.30;99.90
17252;DHT22;8742;51.716;8.790;2022-11-06T02:30:14;7.40;99.90
17252;DHT22;8742;51.716;8.790;2022-11-06T02:32:45;7.50;99.90
17252;DHT22;8742;51.716;8.790;2022-11-06T02:35:20;7.60;99.90
17252;DHT22;8742;51.716;8.790;2022-11-06T02:37:51;7.60;99.90
17252;DHT22;8742;51.716;8.790;2022-11-06T02:40:21;7.70;99.90
17252;DHT22;8742;51.716;8.790;2022-11-06T02:42:53;7.70;99.90
17252;DHT22;8742;51.716;8.790;2022-11-06T02:45:22;7.70;99.90
17252;DHT22;8742;51.716;8.790;2022-11-06T02:47:53;7.70;99.90
17252;DHT22;8742;51.716;8.790;2022-11-06T02:50:24;7.70;99.90
17252;DHT22;8742;51.716;8.790;2022-11-06T02:52:54;7.70;99.90
17252;DHT22;8742;51.716;8.790;2022-11-06T02:55:25;7.70;99.90
17252;DHT22;8742;51.716;8.790;2022-11-06T02:57:57;7.70;99.90
17252;DHT22;8742;51.716;8.790;2022-11-06T03:00:26;7.60;99.90
17252;DHT22;8742;51.716;8.790;2022-11-06T03:02:56;7.60;99.90
17252;DHT22;8742;51.716;8.790;2022-11-06T03:05:28;7.50;99.90
17252;DHT22;8742;51.716;8.790;2022-11-06T03:08:01;7.50;99.90
17252;DHT22;8742;51.716;8.790;2022-11-06T03:10:32;7.50;99.90
17252;DHT22;8742;51.716;8.790;2022-11-06T03:13:04;7.50;99.90
17252;DHT22;8742;51.716;8.790;2022-11-06T03:15:38;7.40;99.90
17252;DHT22;8742;51.716;8.790;2022-11-06T03:18:10;7.40;99.90
17252;DHT22;8742;51.716;8.790;2022-11-06T03:20:42;7.40;99.90
17252;DHT22;8742;51.716;8.790;2022-11-06T03:23:17;7.40;99.90
17252;DHT22;8742;51.716;8.790;2022-11-06T03:25:50;7.40;99.90
17252;DHT22;8742;51.716;8.790;2022-11-06T03:28:24;7.40;99.90
17252;DHT22;8742;51.716;8.790;2022-11-06T03:30:55;7.40;99.90
17252;DHT22;8742;51.716;8.790;2022-11-06T03:33:26;7.40;99.90
17252;DHT22;8742;51.716;8.790;2022-11-06T03:36:00;7.40;99.90
17252;DHT22;8742;51.716;8.790;2022-11-06T03:38:32;7.40;99.90
17252;DHT22;8742;51.716;8.790;2022-11-06T03:41:03;7.40;99.90
17252;DHT22;8742;51.716;8.790;2022-11-06T03:43:35;7.40;99.90
17252;DHT22;8742;51.716;8.790;2022-11-06T03:46:06;7.40;99.90
17252;DHT22;8742;51.716;8.790;2022-11-06T03:48:39;7.40;99.90
17252;DHT22;8742;51.716;8.790;2022-11-06T03:51:10;7.30;99.90
17252;DHT22;8742;51.716;8.790;2022-11-06T03:53:41;7.30;99.90
17252;DHT22;8742;51.716;8.790;2022-11-06T03:56:14;7.30;99.90
17252;DHT22;8742;51.716;8.790;2022-11-06T03:58:45;7.30;99.90
17252;DHT22;8742;51.716;8.790;2022-11-06T04:01:15;7.30;99.90
17252;DHT22;8742;51.716;8.790;2022-11-06T04:03:46;7.30;99.90
17252;DHT22;8742;51.716;8.790;2022-11-06T04:06:17;7.30;99.90
17252;DHT22;8742;51.716;8.790;2022-11-06T04:08:47;7.30;99.90
17252;DHT22;8742;51.716;8.790;2022-11-06T04:11:34;7.30;99.90
17252;DHT22;8742;51.716;8.790;2022-11-06T04:14:25;7.30;99.90
17252;DHT22;8742;51.716;8.790;2022-11-06T04:16:53;7.30;99.90
17252;DHT22;8742;51.716;8.790;2022-11-06T04:19:22;7.30;99.90
17252;DHT22;8742;51.716;8.790;2022-11-06T04:22:13;7.30;99.90
17252;DHT22;8742;51.716;8.790;2022-11-06T04:24:50;7.30;99.90
17252;DHT22;8742;51.716;8.790;2022-11-06T04:27:50;7.30;99.90
17252;DHT22;8742;51.716;8.790;2022-11-06T04:30:20;7.30;99.90
17252;DHT22;8742;51.716;8.790;2022-11-06T04:32:58;7.30;99.90
17252;DHT22;8742;51.716;8.790;2022-11-06T04:35:33;7.30;99.90
17252;DHT22;8742;51.716;8.790;2022-11-06T04:38:06;7.30;99.90
17252;DHT22;8742;51.716;8.790;2022-11-06T04:40:42;7.40;99.90
17252;DHT22;8742;51.716;8.790;2022-11-06T04:43:14;7.40;99.90
17252;DHT22;8742;51.716;8.790;2022-11-06T04:45:46;7.40;99.90
17252;DHT22;8742;51.716;8.790;2022-11-06T04:48:16;7.40;99.90
17252;DHT22;8742;51.716;8.790;2022-11-06T04:50:46;7.40;99.90
17252;DHT22;8742;51.716;8.790;2022-11-06T04:53:15;7.30;99.90
17252;DHT22;8742;51.716;8.790;2022-11-06T04:55:44;7.30;99.90
17252;DHT22;8742;51.716;8.790;2022-11-06T04:58:13;7.30;99.90
17252;DHT22;8742;51.716;8.790;2022-11-06T05:00:45;7.30;99.90
17252;DHT22;8742;51.716;8.790;2022-11-06T05:03:13;7.30;99.90
17252;DHT22;8742;51.716;8.790;2022-11-06T05:05:41;7.30;99.90
17252;DHT22;8742;51.716;8.790;2022-11-06T05:08:12;7.30;99.90
17252;DHT22;8742;51.716;8.790;2022-11-06T05:10:40;7.40;99.90
17252;DHT22;8742;51.716;8.790;2022-11-06T05:13:06;7.40;99.90
17252;DHT22;8742;51.716;8.790;2022-11-06T05:15:35;7.50;99.90
17252;DHT22;8742;51.716;8.790;2022-11-06T05:18:04;7.50;99.90
17252;DHT22;8742;51.716;8.790;2022-11-06T05:20:31;7.50;99.90
17252;DHT22;8742;51.716;8.790;2022-11-06T05:22:58;7.60;99.90
17252;DHT22;8742;51.716;8.790;2022-11-06T05:25:27;7.60;99.90
17252;DHT22;8742;51.716;8.790;2022-11-06T05:27:54;7.60;99.90
17252;DHT22;8742;51.716;8.790;2022-11-06T05:30:22;7.60;99.90
17252;DHT22;8742;51.716;8.790;2022-11-06T05:32:49;7.70;99.90
17252;DHT22;8742;51.716;8.790;2022-11-06T05:35:21;7.70;99.90
17252;DHT22;8742;51.716;8.790;2022-11-06T05:37:48;7.80;99.90
17252;DHT22;8742;51.716;8.790;2022-11-06T05:40:16;7.80;99.90
17252;DHT22;8742;51.716;8.790;2022-11-06T05:42:44;7.80;99.90
17252;DHT22;8742;51.716;8.790;2022-11-06T05:45:11;7.80;99.90
17252;DHT22;8742;51.716;8.790;2022-11-06T05:47:41;7.80;99.90
17252;DHT22;8742;51.716;8.790;2022-11-06T05:50:09;7.80;99.90
17252;DHT22;8742;51.716;8.790;2022-11-06T05:52:37;7.80;99.90
17252;DHT22;8742;51.716;8.790;2022-11-06T05:55:05;7.80;99.90
17252;DHT22;8742;51.716;8.790;2022-11-06T05:57:32;7.80;99.90
17252;DHT22;8742;51.716;8.790;2022-11-06T05:59:59;7.80;99.90
17252;DHT22;8742;51.716;8.790;2022-11-06T06:02:27;7.80;99.90
17252;DHT22;8742;51.716;8.790;2022-11-06T06:04:54;7.80;99.90
17252;DHT22;8742;51.716;8.790;2022-11-06T06:07:21;7.80;99.90
17252;DHT22;8742;51.716;8.790;2022-11-06T06:09:59;7.90;99.90
17252;DHT22;8742;51.716;8.790;2022-11-06T06:12:26;7.90;99.90
17252;DHT22;8742;51.716;8.790;2022-11-06T06:14:53;7.90;99.90
17252;DHT22;8742;51.716;8.790;2022-11-06T06:17:20;7.90;99.90
17252;DHT22;8742;51.716;8.790;2022-11-06T06:19:47;7.90;99.90
17252;DHT22;8742;51.716;8.790;2022-11-06T06:22:14;7.90;99.90
17252;DHT22;8742;51.716;8.790;2022-11-06T06:24:41;7.90;99.90
17252;DHT22;8742;51.716;8.790;2022-11-06T06:27:09;8.00;99.90
17252;DHT22;8742;51.716;8.790;2022-11-06T06:29:36;8.00;99.90
17252;DHT22;8742;51.716;8.790;2022-11-06T06:32:03;8.00;99.90
17252;DHT22;8742;51.716;8.790;2022-11-06T06:34:31;8.00;99.90
17252;DHT22;8742;51.716;8.790;2022-11-06T06:36:58;8.00;99.90
17252;DHT22;8742;51.716;8.790;2022-11-06T06:39:24;8.00;99.90
17252;DHT22;8742;51.716;8.790;2022-11-06T06:41:51;8.00;99.90
17252;DHT22;8742;51.716;8.790;2022-11-06T06:44:19;8.00;99.90
17252;DHT22;8742;51.716;8.790;2022-11-06T06:46:46;8.00;99.90
17252;DHT22;8742;51.716;8.790;2022-11-06T06:49:13;8.00;99.90
17252;DHT22;8742;51.716;8.790;2022-11-06T06:51:40;8.00;99.90
17252;DHT22;8742;51.716;8.790;2022-11-06T06:54:07;8.00;99.90
17252;DHT22;8742;51.716;8.790;2022-11-06T06:56:34;8.00;99.90
17252;DHT22;8742;51.716;8.790;2022-11-06T06:59:01;8.00;99.90
17252;DHT22;8742;51.716;8.790;2022-11-06T07:01:29;7.90;99.90
17252;DHT22;8742;51.716;8.790;2022-11-06T07:03:56;7.90;99.90
17252;DHT22;8742;51.716;8.790;2022-11-06T07:06:23;7.90;99.90
17252;DHT22;8742;51.716;8.790;2022-11-06T07:08:53;7.90;99.90
17252;DHT22;8742;51.716;8.790;2022-11-06T07:11:19;7.90;99.90
17252;DHT22;8742;51.716;8.790;2022-11-06T07:13:46;7.90;99.90
17252;DHT22;8742;51.716;8.790;2022-11-06T07:16:13;7.90;99.90
17252;DHT22;8742;51.716;8.790;2022-11-06T07:18:43;7.90;99.90
17252;DHT22;8742;51.716;8.790;2022-11-06T07:21:11;7.90;99.90
17252;DHT22;8742;51.716;8.790;2022-11-06T07:23:38;7.90;99.90
17252;DHT22;8742;51.716;8.790;2022-11-06T07:26:05;8.00;99.90
17252;DHT22;8742;51.716;8.790;2022-11-06T07:28:32;8.00;99.90
17252;DHT22;8742;51.716;8.790;2022-11-06T07:31:00;8.00;99.90
17252;DHT22;8742;51.716;8.790;2022-11-06T07:33:28;8.00;99.90
17252;DHT22;8742;51.716;8.790;2022-11-06T07:36:01;8.10;99.90
17252;DHT22;8742;51.716;8.790;2022-11-06T07:38:28;8.10;99.90
17252;DHT22;8742;51.716;8.790;2022-11-06T07:40:55;8.20;99.90
17252;DHT22;8742;51.716;8.790;2022-11-06T07:43:22;8.20;99.90
17252;DHT22;8742;51.716;8.790;2022-11-06T07:45:51;8.30;99.90
17252;DHT22;8742;51.716;8.790;2022-11-06T07:48:18;8.30;99.90
17252;DHT22;8742;51.716;8.790;2022-11-06T07:50:44;8.30;99.90
17252;DHT22;8742;51.716;8.790;2022-11-06T07:53:12;8.40;99.90
17252;DHT22;8742;51.716;8.790;2022-11-06T07:55:47;8.40;99.90
17252;DHT22;8742;51.716;8.790;2022-11-06T07:58:13;8.50;99.90
17252;DHT22;8742;51.716;8.790;2022-11-06T08:00:45;8.50;99.90
17252;DHT22;8742;51.716;8.790;2022-11-06T08:03:12;8.60;99.90
17252;DHT22;8742;51.716;8.790;2022-11-06T08:05:39;8.60;99.90
17252;DHT22;8742;51.716;8.790;2022-11-06T08:08:05;8.70;99.90
17252;DHT22;8742;51.716;8.790;2022-11-06T08:10:34;8.80;99.90
17252;DHT22;8742;51.716;8.790;2022-11-06T08:13:04;8.80;99.90
17252;DHT22;8742;51.716;8.790;2022-11-06T08:15:31;8.90;99.90
17252;DHT22;8742;51.716;8.790;2022-11-06T08:17:58;9.00;99.90
17252;DHT22;8742;51.716;8.790;2022-11-06T08:20:26;9.00;99.90
17252;DHT22;8742;51.716;8.790;2022-11-06T08:22:57;9.20;99.90
17252;DHT22;8742;51.716;8.790;2022-11-06T08:25:24;9.70;99.90
17252;DHT22;8742;51.716;8.790;2022-11-06T08:27:54;10.70;99.90
17252;DHT22;8742;51.716;8.790;2022-11-06T08:30:21;11.60;99.90
17252;DHT22;8742;51.716;8.790;2022-11-06T08:32:48;12.40;99.90
17252;DHT22;8742;51.716;8.790;2022-11-06T08:35:15;12.90;99.90
17252;DHT22;8742;51.716;8.790;2022-11-06T08:37:42;13.50;99.90
17252;DHT22;8742;51.716;8.790;2022-11-06T08:40:10;13.90;99.90
17252;DHT22;8742;51.716;8.790;2022-11-06T08:42:37;14.30;99.90
17252;DHT22;8742;51.716;8.790;2022-11-06T08:45:07;14.50;99.90
17252;DHT22;8742;51.716;8.790;2022-11-06T08:47:36;14.70;99.90
17252;DHT22;8742;51.716;8.790;2022-11-06T08:50:03;14.90;99.90
17252;DHT22;8742;51.716;8.790;2022-11-06T08:52:30;15.10;99.90
17252;DHT22;8742;51.716;8.790;2022-11-06T08:54:57;15.30;99.90
17252;DHT22;8742;51.716;8.790;2022-11-06T08:57:23;15.30;99.90
17252;DHT22;8742;51.716;8.790;2022-11-06T08:59:50;15.50;99.90
17252;DHT22;8742;51.716;8.790;2022-11-06T09:02:19;15.50;99.90
17252;DHT22;8742;51.716;8.790;2022-11-06T09:04:45;15.60;99.90
17252;DHT22;8742;51.716;8.790;2022-11-06T09:07:12;15.70;99.90
17252;DHT22;8742;51.716;8.790;2022-11-06T09:09:40;15.90;99.90
17252;DHT22;8742;51.716;8.790;2022-11-06T09:12:07;15.90;99.90
17252;DHT22;8742;51.716;8.790;2022-11-06T09:14:34;15.90;99.90
17252;DHT22;8742;51.716;8.790;2022-11-06T09:17:04;16.00;99.90
17252;DHT22;8742;51.716;8.790;2022-11-06T09:19:32;16.00;99.90
17252;DHT22;8742;51.716;8.790;2022-11-06T09:21:59;16.00;99.90
17252;DHT22;8742;51.716;8.790;2022-11-06T09:24:26;16.20;99.90
17252;DHT22;8742;51.716;8.790;2022-11-06T09:26:54;16.30;99.90
17252;DHT22;8742;51.716;8.790;2022-11-06T09:29:21;16.30;99.90
17252;DHT22;8742;51.716;8.790;2022-11-06T09:31:48;16.20;99.90
17252;DHT22;8742;51.716;8.790;2022-11-06T09:34:15;16.30;99.90
17252;DHT22;8742;51.716;8.790;2022-11-06T09:36:43;16.40;99.90
17252;DHT22;8742;51.716;8.790;2022-11-06T09:39:09;16.50;99.90
17252;DHT22;8742;51.716;8.790;2022-11-06T09:41:45;16.70;99.90
17252;DHT22;8742;51.716;8.790;2022-11-06T09:44:35;16.70;99.90
17252;DHT22;8742;51.716;8.790;2022-11-06T09:47:11;16.90;99.90
17252;DHT22;8742;51.716;8.790;2022-11-06T09:49:43;17.10;99.90
17252;DHT22;8742;51.716;8.790;2022-11-06T09:52:17;17.00;99.90
17252;DHT22;8742;51.716;8.790;2022-11-06T09:54:48;17.00;99.90
17252;DHT22;8742;51.716;8.790;2022-11-06T09:57:20;17.20;99.90
17252;DHT22;8742;51.716;8.790;2022-11-06T09:59:47;17.40;99.90
17252;DHT22;8742;51.716;8.790;2022-11-06T10:02:22;17.60;99.90
17252;DHT22;8742;51.716;8.790;2022-11-06T10:04:56;17.70;99.90
17252;DHT22;8742;51.716;8.790;2022-11-06T10:07:28;17.90;99.90
17252;DHT22;8742;51.716;8.790;2022-11-06T10:09:56;17.90;99.90
17252;DHT22;8742;51.716;8.790;2022-11-06T10:12:29;17.80;99.90
17252;DHT22;8742;51.716;8.790;2022-11-06T10:15:06;17.90;99.90
17252;DHT22;8742;51.716;8.790;2022-11-06T10:17:43;18.00;99.90
17252;DHT22;8742;51.716;8.790;2022-11-06T10:20:17;18.00;99.90
17252;DHT22;8742;51.716;8.790;2022-11-06T10:22:52;18.00;99.90
17252;DHT22;8742;51.716;8.790;2022-11-06T10:25:22;18.20;99.90
17252;DHT22;8742;51.716;8.790;2022-11-06T10:27:59;18.30;99.90
17252;DHT22;8742;51.716;8.790;2022-11-06T10:30:34;18.50;99.90
17252;DHT22;8742;51.716;8.790;2022-11-06T10:33:16;18.80;99.90
17252;DHT22;8742;51.716;8.790;2022-11-06T10:35:52;19.00;99.90
17252;DHT22;8742;51.716;8.790;2022-11-06T10:38:25;19.40;99.90
17252;DHT22;8742;51.716;8.790;2022-11-06T10:40:54;19.70;99.90
17252;DHT22;8742;51.716;8.790;2022-11-06T10:43:27;19.90;99.90
17252;DHT22;8742;51.716;8.790;2022-11-06T10:46:02;20.20;98.90
17252;DHT22;8742;51.716;8.790;2022-11-06T10:48:35;20.50;97.50
17252;DHT22;8742;51.716;8.790;2022-11-06T10:51:18;20.50;97.60
17252;DHT22;8742;51.716;8.790;2022-11-06T10:53:56;20.60;97.40
17252;DHT22;8742;51.716;8.790;2022-11-06T10:56:39;20.10;96.80
17252;DHT22;8742;51.716;8.790;2022-11-06T10:59:08;19.30;97.60
17252;DHT22;8742;51.716;8.790;2022-11-06T11:01:36;18.60;97.60
17252;DHT22;8742;51.716;8.790;2022-11-06T11:04:03;18.00;99.60
17252;DHT22;8742;51.716;8.790;2022-11-06T11:06:30;17.70;99.90
17252;DHT22;8742;51.716;8.790;2022-11-06T11:08:58;17.60;99.90
17252;DHT22;8742;51.716;8.790;2022-11-06T11:11:27;18.20;99.90
17252;DHT22;8742;51.716;8.790;2022-11-06T11:14:18;19.00;99.90
17252;DHT22;8742;51.716;8.790;2022-11-06T11:16:59;19.70;97.80
17252;DHT22;8742;51.716;8.790;2022-11-06T11:19:41;20.20;98.30
17252;DHT22;8742;51.716;8.790;2022-11-06T11:22:18;20.50;95.60
17252;DHT22;8742;51.716;8.790;2022-11-06T11:25:15;20.30;96.70
17252;DHT22;8742;51.716;8.790;2022-11-06T11:28:03;20.40;95.70
17252;DHT22;8742;51.716;8.790;2022-11-06T11:30:33;20.50;95.50
17252;DHT22;8742;51.716;8.790;2022-11-06T11:33:02;19.60;95.00
17252;DHT22;8742;51.716;8.790;2022-11-06T11:39:43;17.20;97.90
17252;DHT22;8742;51.716;8.790;2022-11-06T11:42:26;16.90;98.60
17252;DHT22;8742;51.716;8.790;2022-11-06T11:46:11;16.60;99.00
17252;DHT22;8742;51.716;8.790;2022-11-06T11:49:00;16.40;99.40
17252;DHT22;8742;51.716;8.790;2022-11-06T11:51:33;16.10;99.90
17252;DHT22;8742;51.716;8.790;2022-11-06T11:54:04;16.00;99.90
17252;DHT22;8742;51.716;8.790;2022-11-06T11:56:32;16.10;99.90
17252;DHT22;8742;51.716;8.790;2022-11-06T11:59:02;16.80;99.90
17252;DHT22;8742;51.716;8.790;2022-11-06T12:01:34;17.80;99.90
17252;DHT22;8742;51.716;8.790;2022-11-06T12:04:08;18.70;99.90
17252;DHT22;8742;51.716;8.790;2022-11-06T12:06:52;19.40;99.00
17252;DHT22;8742;51.716;8.790;2022-11-06T12:09:21;19.90;97.10
17252;DHT22;8742;51.716;8.790;2022-11-06T12:11:48;20.10;96.90
17252;DHT22;8742;51.716;8.790;2022-11-06T12:14:28;20.30;96.20
17252;DHT22;8742;51.716;8.790;2022-11-06T12:17:01;20.50;95.40
17252;DHT22;8742;51.716;8.790;2022-11-06T12:19:31;20.50;95.10
17252;DHT22;8742;51.716;8.790;2022-11-06T12:22:04;20.60;94.80
17252;DHT22;8742;51.716;8.790;2022-11-06T12:24:36;20.70;94.60
17252;DHT22;8742;51.716;8.790;2022-11-06T12:27:08;20.70;93.90
17252;DHT22;8742;51.716;8.790;2022-11-06T12:29:40;20.80;94.00
17252;DHT22;8742;51.716;8.790;2022-11-06T12:32:17;21.00;93.80
17252;DHT22;8742;51.716;8.790;2022-11-06T12:34:51;21.10;92.00
17252;DHT22;8742;51.716;8.790;2022-11-06T12:37:25;20.80;92.60
17252;DHT22;8742;51.716;8.790;2022-11-06T12:39:56;20.60;94.00
17252;DHT22;8742;51.716;8.790;2022-11-06T12:42:29;20.00;92.20
17252;DHT22;8742;51.716;8.790;2022-11-06T12:44:59;19.00;92.10
17252;DHT22;8742;51.716;8.790;2022-11-06T12:47:38;18.00;93.40
17252;DHT22;8742;51.716;8.790;2022-11-06T12:50:23;17.20;95.10
17252;DHT22;8742;51.716;8.790;2022-11-06T12:53:05;16.50;96.00
17252;DHT22;8742;51.716;8.790;2022-11-06T12:55:36;15.90;96.80
17252;DHT22;8742;51.716;8.790;2022-11-06T12:58:16;15.50;97.40
17252;DHT22;8742;51.716;8.790;2022-11-06T13:00:57;15.10;98.20
17252;DHT22;8742;51.716;8.790;2022-11-06T13:03:49;14.80;98.90
17252;DHT22;8742;51.716;8.790;2022-11-06T13:06:24;14.60;99.40
17252;DHT22;8742;51.716;8.790;2022-11-06T13:08:58;14.50;99.90
17252;DHT22;8742;51.716;8.790;2022-11-06T13:11:35;14.40;99.90
17252;DHT22;8742;51.716;8.790;2022-11-06T13:14:14;14.30;99.90
17252;DHT22;8742;51.716;8.790;2022-11-06T13:16:50;14.30;99.90
17252;DHT22;8742;51.716;8.790;2022-11-06T13:19:27;14.20;99.90
17252;DHT22;8742;51.716;8.790;2022-11-06T13:22:16;14.10;99.90
17252;DHT22;8742;51.716;8.790;2022-11-06T13:24:49;14.00;99.90
17252;DHT22;8742;51.716;8.790;2022-11-06T13:27:26;13.90;99.90
17252;DHT22;8742;51.716;8.790;2022-11-06T13:29:58;13.80;99.90
17252;DHT22;8742;51.716;8.790;2022-11-06T13:32:31;13.70;99.90
17252;DHT22;8742;51.716;8.790;2022-11-06T13:34:59;13.60;99.90
17252;DHT22;8742;51.716;8.790;2022-11-06T13:37:36;13.60;99.90
17252;DHT22;8742;51.716;8.790;2022-11-06T13:40:15;13.60;99.90
17252;DHT22;8742;51.716;8.790;2022-11-06T13:42:47;13.70;99.90
17252;DHT22;8742;51.716;8.790;2022-11-06T13:45:15;13.70;99.90
17252;DHT22;8742;51.716;8.790;2022-11-06T13:47:54;13.70;99.90
17252;DHT22;8742;51.716;8.790;2022-11-06T13:50:28;13.60;99.80
17252;DHT22;8742;51.716;8.790;2022-11-06T13:52:59;13.50;99.90
17252;DHT22;8742;51.716;8.790;2022-11-06T13:55:38;13.40;99.90
17252;DHT22;8742;51.716;8.790;2022-11-06T14:01:11;13.30;99.90
17252;DHT22;8742;51.716;8.790;2022-11-06T14:04:04;13.20;99.90
17252;DHT22;8742;51.716;8.790;2022-11-06T14:06:35;13.20;99.90
17252;DHT22;8742;51.716;8.790;2022-11-06T14:09:05;13.30;99.90
17252;DHT22;8742;51.716;8.790;2022-11-06T14:11:36;13.30;99.90
17252;DHT22;8742;51.716;8.790;2022-11-06T14:14:06;13.30;99.90
17252;DHT22;8742;51.716;8.790;2022-11-06T14:16:33;13.30;99.90
17252;DHT22;8742;51.716;8.790;2022-11-06T14:19:05;13.20;99.90
17252;DHT22;8742;51.716;8.790;2022-11-06T14:21:48;13.20;99.90
17252;DHT22;8742;51.716;8.790;2022-11-06T14:27:02;12.90;99.90
17252;DHT22;8742;51.716;8.790;2022-11-06T14:29:58;12.70;99.90
17252;DHT22;8742;51.716;8.790;2022-11-06T14:32:43;12.50;99.90
17252;DHT22;8742;51.716;8.790;2022-11-06T14:38:36;12.30;99.90
17252;DHT22;8742;51.716;8.790;2022-11-06T14:44:38;12.10;99.90
17252;DHT22;8742;51.716;8.790;2022-11-06T14:47:17;12.10;99.90
17252;DHT22;8742;51.716;8.790;2022-11-06T14:49:49;12.00;99.90
17252;DHT22;8742;51.716;8.790;2022-11-06T14:52:17;11.90;99.90
17252;DHT22;8742;51.716;8.790;2022-11-06T14:54:54;11.80;99.90
17252;DHT22;8742;51.716;8.790;2022-11-06T14:57:40;11.70;99.90
17252;DHT22;8742;51.716;8.790;2022-11-06T15:00:12;11.50;99.90
17252;DHT22;8742;51.716;8.790;2022-11-06T15:02:40;11.40;99.90
17252;DHT22;8742;51.716;8.790;2022-11-06T15:05:14;11.40;99.90
17252;DHT22;8742;51.716;8.790;2022-11-06T15:07:54;11.30;99.90
17252;DHT22;8742;51.716;8.790;2022-11-06T15:10:49;11.20;99.90
17252;DHT22;8742;51.716;8.790;2022-11-06T15:13:25;11.10;99.90
17252;DHT22;8742;51.716;8.790;2022-11-06T15:15:56;11.10;99.90
17252;DHT22;8742;51.716;8.790;2022-11-06T15:18:24;11.00;99.90
17252;DHT22;8742;51.716;8.790;2022-11-06T15:20:54;11.00;99.90
17252;DHT22;8742;51.716;8.790;2022-11-06T15:23:22;11.00;99.90
17252;DHT22;8742;51.716;8.790;2022-11-06T15:25:59;10.90;99.90
17252;DHT22;8742;51.716;8.790;2022-11-06T15:28:28;10.90;99.90
17252;DHT22;8742;51.716;8.790;2022-11-06T15:31:00;10.80;99.90
17252;DHT22;8742;51.716;8.790;2022-11-06T15:33:29;10.80;99.90
17252;DHT22;8742;51.716;8.790;2022-11-06T15:36:02;10.80;99.90
17252;DHT22;8742;51.716;8.790;2022-11-06T15:38:37;10.70;99.90
17252;DHT22;8742;51.716;8.790;2022-11-06T15:41:07;10.60;99.90
17252;DHT22;8742;51.716;8.790;2022-11-06T15:43:38;10.60;99.90
17252;DHT22;8742;51.716;8.790;2022-11-06T15:46:17;10.60;99.90
17252;DHT22;8742;51.716;8.790;2022-11-06T15:48:46;10.50;99.90
17252;DHT22;8742;51.716;8.790;2022-11-06T15:51:22;10.50;99.90
17252;DHT22;8742;51.716;8.790;2022-11-06T15:53:49;10.50;99.90
17252;DHT22;8742;51.716;8.790;2022-11-06T15:56:19;10.50;99.90
17252;DHT22;8742;51.716;8.790;2022-11-06T15:59:04;10.50;99.90
17252;DHT22;8742;51.716;8.790;2022-11-06T16:01:32;10.50;99.90
17252;DHT22;8742;51.716;8.790;2022-11-06T16:03:59;10.50;99.90
17252;DHT22;8742;51.716;8.790;2022-11-06T16:06:26;10.50;99.90
17252;DHT22;8742;51.716;8.790;2022-11-06T16:08:54;10.60;99.90
17252;DHT22;8742;51.716;8.790;2022-11-06T16:11:23;10.60;99.90
17252;DHT22;8742;51.716;8.790;2022-11-06T16:13:51;10.60;99.90
17252;DHT22;8742;51.716;8.790;2022-11-06T16:16:31;10.60;99.90
17252;DHT22;8742;51.716;8.790;2022-11-06T16:18:59;10.60;99.90
17252;DHT22;8742;51.716;8.790;2022-11-06T16:21:29;10.70;99.90
17252;DHT22;8742;51.716;8.790;2022-11-06T16:23:59;10.70;99.90
17252;DHT22;8742;51.716;8.790;2022-11-06T16:26:36;10.70;99.90
17252;DHT22;8742;51.716;8.790;2022-11-06T16:29:09;10.80;99.90
17252;DHT22;8742;51.716;8.790;2022-11-06T16:31:38;10.80;99.90
17252;DHT22;8742;51.716;8.790;2022-11-06T16:34:17;10.80;99.90
17252;DHT22;8742;51.716;8.790;2022-11-06T16:36:51;10.80;99.90
17252;DHT22;8742;51.716;8.790;2022-11-06T16:39:44;10.80;99.90
17252;DHT22;8742;51.716;8.790;2022-11-06T16:42:23;10.90;99.90